Data for 02/24/2007

Time Sea-Level Adjusted Pressure Absolute Pressure Temperature Relative Humidity Dew Point   
(mb) (inHg) (mb) (inHg) (C) (F) (%) (C) (F)
00:05 1014 29.94 843 24.89 -6.5 20.3 86 -8.5 16.7
00:10 1014 29.94 843 24.89 -6.7 19.9 86 -8.7 16.3
00:15 1014 29.94 843 24.89 -6.9 19.6 87 -8.7 16.3
00:20 1014 29.94 843 24.89 -6.7 19.9 87 -8.6 16.5
00:25 1014 29.94 843 24.89 -6.7 19.9 86 -8.7 16.4
00:30 1014 29.94 843 24.89 -6.9 19.6 86 -8.8 16.1
00:35 1014 29.94 843 24.89 -7.1 19.3 86 -9 15.8
00:40 1014 29.94 843 24.89 -7.2 19.1 86 -9.1 15.7
00:45 1014 29.94 843 24.89 -7.1 19.3 85 -9.2 15.4
00:50 1014 29.94 843 24.89 -7 19.4 85 -9.1 15.6
00:55 1014 29.94 843 24.89 -6.8 19.7 84 -9 15.7
01:00 1014 29.94 843 24.89 -6.8 19.8 84 -9.1 15.7
01:05 1014 29.94 843 24.89 -6.8 19.8 83 -9.2 15.4
01:10 1014 29.94 844 24.92 -6.9 19.6 82 -9.4 15
01:15 1014 29.94 844 24.92 -7 19.4 82 -9.7 14.6
01:20 1014 29.94 844 24.92 -7.1 19.2 81 -9.8 14.3
01:25 1014 29.94 844 24.92 -7.2 19 81 -10 14.1
01:30 1014 29.94 844 24.92 -7.2 19 80 -10.1 13.8
01:35 1014 29.94 844 24.92 -7.2 19.1 79 -10.2 13.7
01:40 1015 29.97 844 24.92 -7.1 19.3 78 -10.2 13.6
01:45 1015 29.97 844 24.92 -7.1 19.3 79 -10.2 13.7
01:50 1015 29.97 844 24.92 -7 19.5 78 -10.2 13.7
01:55 1015 29.97 844 24.92 -6.8 19.8 78 -10 14
02:00 1015 29.97 844 24.92 -6.6 20.1 78 -9.8 14.3
02:05 1015 29.97 844 24.92 -6.4 20.4 77 -9.8 14.4
02:10 1015 29.97 844 24.92 -6.2 20.8 76 -9.8 14.4
02:15 1015 29.97 844 24.92 -6.3 20.7 76 -9.9 14.2
02:20 1015 29.97 844 24.92 -6.3 20.7 76 -9.8 14.3
02:25 1015 29.97 844 24.92 -6.4 20.6 75 -10.1 13.8
02:30 1015 29.97 844 24.92 -6.5 20.3 75 -10.2 13.7
02:35 1015 29.97 844 24.92 -6.5 20.3 75 -10.2 13.7
02:40 1015 29.97 844 24.92 -6.6 20.1 75 -10.3 13.5
02:45 1015 29.97 844 24.92 -6.6 20.1 76 -10.2 13.7
02:50 1015 29.97 844 24.92 -6.7 19.9 75 -10.4 13.2
02:55 1015 29.97 844 24.92 -6.8 19.7 75 -10.6 12.9
03:00 1015 29.97 844 24.92 -6.7 19.9 75 -10.5 13.1
03:05 1015 29.97 844 24.92 -6.7 20 74 -10.5 13.1
03:10 1015 29.97 844 24.92 -6.6 20.1 74 -10.6 12.9
03:15 1015 29.97 844 24.92 -6.5 20.2 74 -10.5 13.1
03:20 1015 29.97 844 24.92 -6.6 20.1 74 -10.6 12.9
03:25 1015 29.97 844 24.92 -6.7 19.9 74 -10.7 12.7
03:30 1015 29.97 844 24.92 -6.8 19.8 74 -10.6 12.9
03:35 1015 29.97 844 24.92 -6.9 19.6 75 -10.7 12.8
03:40 1015 29.97 844 24.92 -6.9 19.6 75 -10.6 12.9
03:45 1015 29.97 844 24.92 -7 19.4 76 -10.5 13.1
03:50 1015 29.97 844 24.92 -7.1 19.3 75 -10.8 12.6
03:55 1015 29.97 845 24.95 -6.9 19.6 76 -10.5 13.2
04:00 1015 29.97 845 24.95 -6.7 19.9 77 -10.2 13.7
04:05 1015 29.97 845 24.95 -6.8 19.7 78 -10 14
04:10 1015 29.97 845 24.95 -6.9 19.6 79 -10 14
04:15 1015 29.97 845 24.95 -6.9 19.6 77 -10.2 13.7
04:20 1016 30 845 24.95 -6.9 19.6 79 -10 14
04:25 1016 30 845 24.95 -7.1 19.3 79 -10.2 13.6
04:30 1016 30 845 24.95 -7.2 19.1 78 -10.3 13.4
04:35 1016 30 845 24.95 -7.1 19.3 78 -10.4 13.3
04:40 1016 30 845 24.95 -6.8 19.7 78 -10.1 13.8
04:45 1016 30 845 24.95 -6.8 19.8 77 -10.1 13.8
04:50 1016 30 845 24.95 -6.7 19.9 77 -10.1 13.8
04:55 1016 30 845 24.95 -6.7 19.9 78 -10 14
05:00 1016 30 845 24.95 -6.9 19.6 77 -10.2 13.6
05:05 1016 30 845 24.95 -7 19.4 78 -10.2 13.7
05:10 1016 30 845 24.95 -7 19.3 78 -10.3 13.5
05:15 1016 30 845 24.95 -6.9 19.5 77 -10.3 13.5
05:20 1016 30 845 24.95 -6.8 19.8 76 -10.3 13.5
05:25 1016 30 845 24.95 -6.8 19.8 75 -10.5 13.1
05:30 1016 30 845 24.95 -6.8 19.8 77 -10.2 13.6
05:35 1016 30 845 24.95 -6.8 19.8 78 -10.1 13.9
05:40 1016 30 845 24.95 -6.8 19.8 74 -10.7 12.7
05:45 1016 30 845 24.95 -6.7 19.9 73 -10.8 12.6
05:50 1016 30 845 24.95 -6.7 19.9 74 -10.6 12.9
05:55 1016 30 845 24.95 -6.8 19.8 73 -10.8 12.6
06:00 1016 30 845 24.95 -6.9 19.6 77 -10.3 13.5
06:05 1016 30 845 24.95 -7.3 19 79 -10.3 13.5
06:10 1016 30 845 24.95 -7.6 18.4 80 -10.4 13.3
06:15 1016 30 845 24.95 -7.6 18.3 81 -10.4 13.3
06:20 1016 30 846 24.98 -7.5 18.5 81 -10.3 13.5
06:25 1016 30 846 24.98 -7.2 19 78 -10.5 13.1
06:30 1016 30 846 24.98 -7.1 19.3 76 -10.7 12.8
06:35 1016 30 846 24.98 -7.1 19.2 75 -10.9 12.4
06:40 1016 30 846 24.98 -7 19.4 73 -11 12.2
06:45 1016 30 846 24.98 -6.9 19.6 73 -11 12.3
06:50 1016 30 846 24.98 -6.9 19.7 75 -10.6 12.9
06:55 1016 30 846 24.98 -6.9 19.5 75 -10.6 12.9
07:00 1016 30 846 24.98 -7 19.4 75 -10.7 12.7
07:05 1016 30 846 24.98 -7 19.5 74 -10.9 12.4
07:10 1017 30.03 846 24.98 -6.9 19.6 74 -10.8 12.5
07:15 1017 30.03 846 24.98 -6.8 19.8 74 -10.7 12.7
07:20 1017 30.03 846 24.98 -6.8 19.7 74 -10.7 12.7
07:25 1017 30.03 846 24.98 -6.8 19.8 72 -11 12.2
07:30 1017 30.03 846 24.98 -7.3 18.9 75 -11 12.1
07:35 1017 30.03 846 24.98 -7.6 18.3 77 -11 12.2
07:40 1017 30.03 846 24.98 -7.7 18.2 78 -10.9 12.3
07:45 1017 30.03 846 24.98 -7.6 18.3 79 -10.7 12.7
07:50 1017 30.03 846 24.98 -7.9 17.8 80 -10.8 12.5
07:55 1017 30.03 846 24.98 -7.6 18.3 78 -10.9 12.4
08:00 1017 30.03 846 24.98 -7.7 18.1 78 -10.8 12.5
08:05 1017 30.03 846 24.98 -7.5 18.5 78 -10.7 12.8
08:10 1017 30.03 846 24.98 -7 19.5 77 -10.4 13.3
08:15 1017 30.03 846 24.98 -5.9 21.4 71 -10.3 13.4
08:20 1017 30.03 846 24.98 -5.6 21.9 71 -10.1 13.8
08:25 1017 30.03 846 24.98 -5.7 21.7 74 -9.7 14.5
08:30 1017 30.03 846 24.98 -6 21.2 74 -9.9 14.2
08:35 1017 30.03 846 24.98 -6.3 20.7 77 -9.6 14.7
08:40 1017 30.03 846 24.98 -5.7 21.7 75 -9.5 14.9
08:45 1017 30.03 846 24.98 -6.2 20.8 78 -9.4 15
08:50 1017 30.03 846 24.98 -6.6 20.1 79 -9.6 14.7
08:55 1017 30.03 846 24.98 -6.5 20.3 78 -9.7 14.6
09:00 1017 30.03 846 24.98 -6.4 20.4 80 -9.4 15.1
09:05 1017 30.03 846 24.98 -6.6 20 81 -9.4 15.1
09:10 1017 30.03 846 24.98 -6.6 20.2 80 -9.5 15
09:15 1017 30.03 846 24.98 -5.6 21.8 75 -9.4 15.2
09:20 1017 30.03 846 24.98 -5.1 22.9 73 -9.2 15.5
09:25 1017 30.03 846 24.98 -5.3 22.5 73 -9.3 15.2
09:30 1017 30.03 846 24.98 -5.4 22.3 73 -9.5 15
09:35 1017 30.03 846 24.98 -5 23.1 71 -9.5 14.9
09:40 1017 30.03 846 24.98 -3.9 25 67 -9.1 15.6
09:45 1017 30.03 846 24.98 -3.1 26.4 64 -9 15.8
09:50 1017 30.03 846 24.98 -3.1 26.5 65 -8.7 16.3
09:55 1017 30.03 846 24.98 -3.6 25.5 67 -8.9 16
10:00 1017 30.03 846 24.98 -4 24.7 68 -9.2 15.4
10:05 1017 30.03 846 24.98 -4 24.9 70 -8.7 16.3
10:10 1017 30.03 846 24.98 -3.1 26.5 65 -8.8 16.2
10:15 1017 30.03 846 24.98 -2.6 27.3 63 -8.8 16.2
10:20 1017 30.03 846 24.98 -3.4 25.9 66 -8.9 15.9
10:25 1017 30.03 846 24.98 -3.2 26.2 63 -9.3 15.2
10:30 1016 30 846 24.98 -3.4 26 61 -9.8 14.4
10:35 1016 30 846 24.98 -3.4 26 64 -9.1 15.5
10:40 1016 30 846 24.98 -3 26.6 64 -8.9 16.1
10:45 1017 30.03 846 24.98 -2.9 26.8 62 -9.1 15.7
10:50 1017 30.03 846 24.98 -2.5 27.6 61 -9 15.7
10:55 1016 30 846 24.98 -1.7 29 58 -9 15.9
11:00 1016 30 846 24.98 -1.9 28.6 58 -9 15.8
11:05 1016 30 846 24.98 -1.4 29.4 56 -9.1 15.7
11:10 1016 30 846 24.98 -1.2 29.9 56 -8.8 16.2
11:15 1016 30 846 24.98 -2.2 28 59 -9.1 15.6
11:20 1016 30 846 24.98 -2.4 27.6 59 -9.3 15.2
11:25 1016 30 846 24.98 -1.4 29.5 55 -9.4 15
11:30 1016 30 846 24.98 -0.5 31.1 52 -9.2 15.4
11:35 1016 30 845 24.95 -0.4 31.3 52 -9 15.7
11:40 1016 30 845 24.95 0 32 50 -9.2 15.4
11:45 1016 30 845 24.95 -0.2 31.6 52 -8.9 16
11:50 1016 30 845 24.95 -0.1 31.7 50 -9.3 15.3
11:55 1016 30 845 24.95 0.1 32.2 50 -9.1 15.6
12:00 1016 30 845 24.95 0.2 32.3 48 -9.6 14.7
12:05 1016 30 845 24.95 0.4 32.7 46 -9.8 14.3
12:10 1016 30 845 24.95 -0.2 31.6 51 -9.2 15.4
12:15 1016 30 845 24.95 -0.6 31 48 -10.2 13.6
12:20 1016 30 845 24.95 -1.4 29.5 48 -11.1 12
12:25 1016 30 845 24.95 -1.9 28.6 52 -10.6 12.9
12:30 1016 30 845 24.95 -0.6 31 45 -11.1 12.1
12:35 1016 30 845 24.95 -1 30.1 47 -11.1 12
12:40 1016 30 845 24.95 0.4 32.7 43 -10.7 12.8
12:45 1016 30 845 24.95 1 33.7 40 -11.1 12
12:50 1016 30 845 24.95 -0 32 42 -11.4 11.5
12:55 1015 29.97 845 24.95 -1 30.3 42 -12.3 9.8
13:00 1015 29.97 845 24.95 -1.8 28.8 43 -12.8 9
13:05 1015 29.97 845 24.95 -1.5 29.2 46 -11.6 11.1
13:10 1015 29.97 844 24.92 -0.9 30.5 48 -10.7 12.8
13:15 1015 29.97 844 24.92 -0 31.9 40 -12.1 10.2
13:20 1015 29.97 844 24.92 0 32.1 39 -12.2 10
13:25 1015 29.97 844 24.92 0.5 32.9 40 -11.5 11.4
13:30 1015 29.97 844 24.92 0.9 33.6 36 -12.7 9.2
13:35 1015 29.97 844 24.92 -0.5 31.1 44 -11.2 11.8
13:40 1015 29.97 844 24.92 0 32.1 44 -10.8 12.6
13:45 1015 29.97 844 24.92 -1.1 29.9 45 -11.7 10.9
13:50 1015 29.97 844 24.92 -2 28.5 46 -12.1 10.2
13:55 1015 29.97 844 24.92 -2.2 28 47 -12 10.4
14:00 1015 29.97 844 24.92 -0.5 31.2 42 -11.8 10.8
14:05 1015 29.97 844 24.92 -1 30.2 45 -11.5 11.3
14:10 1015 29.97 844 24.92 -1.3 29.6 47 -11.3 11.7
14:15 1015 29.97 844 24.92 0.1 32.1 43 -11.2 11.8
14:20 1015 29.97 844 24.92 -0.6 31 44 -11.4 11.6
14:25 1015 29.97 844 24.92 -1.5 29.4 42 -12.7 9.2
14:30 1015 29.97 844 24.92 -0.6 30.9 42 -11.9 10.5
14:35 1015 29.97 844 24.92 -0.4 31.3 42 -11.8 10.7
14:40 1014 29.94 844 24.92 0.2 32.4 40 -12 10.4
14:45 1015 29.97 844 24.92 -1.1 30.1 47 -11 12.3
14:50 1015 29.97 844 24.92 -1.4 29.5 46 -11.6 11.1
14:55 1015 29.97 844 24.92 -0.5 31.1 42 -12.1 10.3
15:00 1015 29.97 844 24.92 0.7 33.2 38 -12 10.3
15:05 1014 29.94 844 24.92 -0.1 31.8 43 -11.3 11.6
15:10 1014 29.94 844 24.92 -0.6 30.9 42 -12 10.4
15:15 1014 29.94 844 24.92 -0.4 31.3 44 -11.3 11.7
15:20 1014 29.94 844 24.92 0.9 33.7 38 -12 10.4
15:25 1014 29.94 844 24.92 1 33.8 39 -11.6 11.2
15:30 1014 29.94 844 24.92 1.3 34.3 39 -11.1 12
15:35 1014 29.94 844 24.92 1.4 34.4 40 -11 12.2
15:40 1014 29.94 844 24.92 1.6 34.9 36 -12 10.5
15:45 1014 29.94 844 24.92 1.2 34.2 40 -11 12.1
15:50 1014 29.94 843 24.89 0.8 33.5 41 -11 12.2
15:55 1014 29.94 843 24.89 1.2 34.1 39 -11.2 11.8
16:00 1014 29.94 843 24.89 0.5 32.9 41 -11.2 11.9
16:05 1014 29.94 843 24.89 0.3 32.6 42 -11 12.2
16:10 1014 29.94 843 24.89 0.5 32.8 41 -11.3 11.7
16:15 1014 29.94 843 24.89 0.3 32.5 42 -11.2 11.9
16:20 1014 29.94 843 24.89 -0.1 31.7 43 -11.4 11.5
16:25 1014 29.94 843 24.89 -0.1 31.8 44 -10.9 12.3
16:30 1014 29.94 843 24.89 0.9 33.6 40 -11.3 11.7
16:35 1014 29.94 843 24.89 0.8 33.4 39 -11.6 11.2
16:40 1014 29.94 843 24.89 0.7 33.2 41 -11.1 11.9
16:45 1014 29.94 843 24.89 -0.2 31.7 45 -10.6 12.9
16:50 1014 29.94 843 24.89 -0.7 30.7 47 -10.5 13
16:55 1014 29.94 843 24.89 -0.9 30.4 47 -10.9 12.3
17:00 1014 29.94 843 24.89 -1 30.2 46 -11.2 11.9
17:05 1013 29.91 843 24.89 -1 30.2 47 -11 12.2
17:10 1013 29.91 843 24.89 -1 30.2 49 -10.5 13
17:15 1013 29.91 843 24.89 -1.2 29.8 50 -10.4 13.3
17:20 1013 29.91 843 24.89 -1.8 28.8 50 -10.8 12.6
17:25 1013 29.91 843 24.89 -2.6 27.2 54 -10.8 12.6
17:30 1013 29.91 843 24.89 -2.9 26.8 55 -10.7 12.7
17:35 1013 29.91 842 24.86 -2.9 26.8 57 -10.2 13.6
17:40 1013 29.91 842 24.86 -3.1 26.4 58 -10.2 13.6
17:45 1013 29.91 842 24.86 -3.4 25.9 60 -10.2 13.7
17:50 1013 29.91 842 24.86 -3.5 25.8 60 -10.1 13.8
17:55 1013 29.91 842 24.86 -3.9 25 63 -9.8 14.3
18:00 1013 29.91 842 24.86 -4.3 24.3 63 -10.2 13.6
18:05 1013 29.91 842 24.86 -4.5 23.9 64 -10.3 13.5
18:10 1013 29.91 842 24.86 -4.7 23.6 63 -10.6 12.9
18:15 1013 29.91 842 24.86 -4.9 23.2 64 -10.7 12.7
18:20 1013 29.91 842 24.86 -5 23 64 -10.8 12.6
18:25 1013 29.91 842 24.86 -4.8 23.3 63 -10.8 12.5
18:30 1013 29.91 842 24.86 -5.1 22.8 66 -10.6 12.9
18:35 1013 29.91 842 24.86 -5.3 22.4 69 -10.2 13.6
18:40 1013 29.91 842 24.86 -5.4 22.2 68 -10.4 13.2
18:45 1013 29.91 842 24.86 -5.7 21.8 71 -10.2 13.7
18:50 1013 29.91 842 24.86 -6 21.2 69 -10.7 12.7
18:55 1013 29.91 842 24.86 -6.3 20.6 70 -10.8 12.5
19:00 1013 29.91 842 24.86 -6.4 20.5 71 -10.8 12.6
19:05 1013 29.91 842 24.86 -6.7 19.9 72 -11 12.3
19:10 1013 29.91 842 24.86 -6.7 20 71 -11.2 11.9
19:15 1013 29.91 842 24.86 -6.5 20.2 69 -11.3 11.7
19:20 1013 29.91 842 24.86 -6.4 20.5 68 -11.3 11.7
19:25 1013 29.91 842 24.86 -6.4 20.5 69 -11.2 11.8
19:30 1013 29.91 842 24.86 -6.3 20.6 68 -11.3 11.7
19:35 1013 29.91 842 24.86 -6.1 21 71 -10.5 13
19:40 1013 29.91 842 24.86 -6 21.2 72 -10.2 13.6
19:45 1013 29.91 842 24.86 -5.8 21.5 72 -10.1 13.8
19:50 1013 29.91 842 24.86 -5.7 21.7 73 -9.8 14.3
19:55 1013 29.91 842 24.86 -5.7 21.7 72 -9.9 14.2
20:00 1013 29.91 842 24.86 -5.5 22.1 72 -9.8 14.4
20:05 1013 29.91 842 24.86 -5.6 22 72 -9.9 14.2
20:10 1013 29.91 842 24.86 -5.5 22.2 71 -9.9 14.3
20:15 1013 29.91 842 24.86 -5.4 22.3 71 -9.9 14.2
20:20 1013 29.91 842 24.86 -5.2 22.6 71 -9.7 14.5
20:25 1013 29.91 842 24.86 -5.3 22.5 71 -9.7 14.5
20:30 1013 29.91 842 24.86 -5.4 22.3 71 -9.8 14.4
20:35 1013 29.91 842 24.86 -5.4 22.4 71 -9.8 14.4
20:40 1013 29.91 842 24.86 -5.3 22.5 70 -9.8 14.3
20:45 1013 29.91 842 24.86 -5.2 22.7 69 -10.1 13.8
20:50 1013 29.91 842 24.86 -5.1 22.9 68 -10.1 13.8
20:55 1013 29.91 842 24.86 -5 23.1 69 -9.8 14.3
21:00 1013 29.91 842 24.86 -5 23 69 -9.9 14.2
21:05 1013 29.91 842 24.86 -4.9 23.2 68 -10 14
21:10 1012 29.88 842 24.86 -4.8 23.4 67 -10 14
21:15 1012 29.88 842 24.86 -4.7 23.5 65 -10.2 13.6
21:20 1012 29.88 842 24.86 -4.7 23.5 67 -10 13.9
21:25 1012 29.88 842 24.86 -4.8 23.4 66 -10.2 13.7
21:30 1012 29.88 841 24.83 -4.8 23.4 67 -10 14
21:35 1012 29.88 841 24.83 -4.8 23.4 65 -10.4 13.3
21:40 1012 29.88 841 24.83 -4.7 23.6 64 -10.4 13.2
21:45 1012 29.88 841 24.83 -4.6 23.7 66 -10 14
21:50 1012 29.88 841 24.83 -4.6 23.7 66 -10.1 13.9
21:55 1012 29.88 841 24.83 -4.6 23.7 66 -10 14
22:00 1012 29.88 841 24.83 -4.6 23.7 66 -9.9 14.1
22:05 1012 29.88 841 24.83 -4.6 23.8 66 -10 14
22:10 1012 29.88 841 24.83 -4.7 23.6 66 -10.1 13.8
22:15 1012 29.88 841 24.83 -4.6 23.8 66 -10 14.1
22:20 1012 29.88 841 24.83 -4.6 23.8 67 -9.8 14.4
22:25 1012 29.88 841 24.83 -4.6 23.7 66 -10 14
22:30 1012 29.88 841 24.83 -4.5 23.9 66 -9.9 14.3
22:35 1012 29.88 841 24.83 -4.5 24 67 -9.7 14.5
22:40 1012 29.88 841 24.83 -4.5 23.9 67 -9.7 14.6
22:45 1012 29.88 841 24.83 -4.5 23.8 68 -9.7 14.6
22:50 1011 29.85 841 24.83 -4.6 23.7 68 -9.6 14.8
22:55 1011 29.85 841 24.83 -4.5 23.8 68 -9.6 14.7
23:00 1011 29.85 841 24.83 -4.5 23.9 68 -9.6 14.7
23:05 1011 29.85 841 24.83 -4.5 24 67 -9.6 14.7
23:10 1011 29.85 841 24.83 -4.6 23.8 68 -9.6 14.7
23:15 1011 29.85 840 24.81 -4.5 24 67 -9.6 14.7
23:20 1011 29.85 840 24.81 -4.5 23.9 68 -9.5 14.9
23:25 1011 29.85 840 24.81 -4.5 23.9 68 -9.6 14.8
23:30 1011 29.85 840 24.81 -4.5 23.9 68 -9.6 14.7
23:35 1011 29.85 840 24.81 -4.5 23.9 69 -9.4 15
23:40 1011 29.85 840 24.81 -4.6 23.8 70 -9.2 15.4
23:45 1011 29.85 840 24.81 -4.6 23.7 70 -9.3 15.3
23:50 1011 29.85 840 24.81 -4.7 23.5 71 -9.1 15.6
23:55 1011 29.85 840 24.81 -4.7 23.5 72 -9.1 15.7
24:00 1011 29.85 840 24.81 -4.7 23.5 72 -9.1 15.7